»·PEaware :: SWA4035 KLAS-KLAX

SWA4035 :: KLAS-KLAX

FLIGHT INFORMATION

Flight Status: Arrived
Operator:
Southwest Airlines
More flights by this operator :: More flights under this callsign
Pilot: Cody B. (17747)
Aircraft: BOEING 737-800
(B738)
More flights by this aircraft type
Origin: KLAS McCarran Intl
United States
Destination: KLAX Los Angeles Intl
United States
More flights between these airports :: More routes between these airports
Route: +BOACH8 RIKKI SHTNR ANJLL3
File this flight plan on PilotEdge
Remarks:
Altitude:
(Current/Filed)
28,000ft
Speed:
(Current/Filed)
441kts
Departed: 30-Jun-18 03:41 PM
Arrived: 30-Jun-18 04:22 PM
Distance/Time
Traveled:
205nm/0:41
Distance/Time
To Go:
Arrived

Flight Plot

Page will automatically refresh every two minutes.

Flight plan parsing failed; only flown route is shown


Map Options




Map Legend


Flown Route
Filed Route
Departure Airport
Arrival Airport
Navaid (VOR, NDB)
Fix

Horizontal Profiles

Position Reports

Time Latitude Longitude Heading Altitude Ground
Speed
30-Jun-18 14:51 36.079927 -115.147118 57 2096ft 0kts
30-Jun-18 14:52 36.079927 -115.147118 57 2096ft 0kts
30-Jun-18 14:53 36.079927 -115.147118 57 2096ft 0kts
30-Jun-18 14:54 36.079927 -115.147118 57 2096ft 0kts
30-Jun-18 14:55 36.079927 -115.147118 57 2096ft 0kts
30-Jun-18 14:56 36.079927 -115.147118 57 2096ft 0kts
30-Jun-18 14:57 36.079927 -115.147118 57 2096ft 0kts
30-Jun-18 14:58 36.079927 -115.147118 57 2096ft 0kts
30-Jun-18 14:59 36.079927 -115.147118 57 2096ft 0kts
30-Jun-18 15:00 36.079927 -115.147118 57 2096ft 0kts
30-Jun-18 15:01 36.079927 -115.147118 57 2096ft 0kts
30-Jun-18 15:02 36.079927 -115.147118 57 2096ft 0kts
30-Jun-18 15:03 36.079927 -115.147118 57 2096ft 0kts
30-Jun-18 15:04 36.079927 -115.147118 57 2096ft 0kts
30-Jun-18 15:05 36.079927 -115.147118 57 2096ft 0kts
30-Jun-18 15:06 36.079927 -115.147118 57 2096ft 0kts
30-Jun-18 15:07 36.079927 -115.147118 57 2096ft 0kts
30-Jun-18 15:08 36.079927 -115.147118 57 2096ft 0kts
30-Jun-18 15:09 36.079927 -115.147118 57 2096ft 0kts
30-Jun-18 15:10 36.079927 -115.147118 57 2096ft 0kts
30-Jun-18 15:11 36.079927 -115.147118 57 2096ft 0kts
30-Jun-18 15:12 36.079927 -115.147118 57 2096ft 0kts
30-Jun-18 15:13 36.079927 -115.147118 57 2096ft 0kts
30-Jun-18 15:14 36.079926 -115.147118 57 2096ft 0kts
30-Jun-18 15:15 36.079926 -115.147118 57 2096ft 0kts
30-Jun-18 15:16 36.079926 -115.147118 57 2096ft 0kts
30-Jun-18 15:17 36.079926 -115.147118 57 2096ft 0kts
30-Jun-18 15:18 36.079926 -115.147118 57 2096ft 0kts
30-Jun-18 15:19 36.079926 -115.147118 57 2096ft 0kts
30-Jun-18 15:20 36.079926 -115.147118 57 2096ft 0kts
30-Jun-18 15:21 36.079926 -115.147118 57 2096ft 0kts
30-Jun-18 15:22 36.079926 -115.147118 57 2096ft 0kts
30-Jun-18 15:23 36.079786 -115.147514 88 2098ft 2kts
30-Jun-18 15:24 36.080008 -115.147910 155 2099ft 0kts
30-Jun-18 15:25 36.080008 -115.147910 155 2099ft 0kts
30-Jun-18 15:26 36.080008 -115.147910 155 2099ft 0kts
30-Jun-18 15:27 36.079901 -115.147846 154 2099ft 1kts
30-Jun-18 15:28 36.079559 -115.147664 155 2100ft 1kts
30-Jun-18 15:29 36.079269 -115.147499 155 2100ft 0kts
30-Jun-18 15:30 36.079138 -115.147425 155 2101ft 3kts
30-Jun-18 15:31 36.078356 -115.144615 94 2093ft 12kts
30-Jun-18 15:32 36.078255 -115.138811 89 2075ft 13kts
30-Jun-18 15:33 36.078263 -115.133349 90 2058ft 20kts
30-Jun-18 15:34 36.078271 -115.126604 90 2042ft 20kts
30-Jun-18 15:35 36.078055 -115.122472 123 2036ft 2kts
30-Jun-18 15:36 36.077377 -115.121441 141 2037ft 0kts
30-Jun-18 15:37 36.077326 -115.121405 158 2037ft 0kts
30-Jun-18 15:38 36.077248 -115.121372 162 2037ft 1kts
30-Jun-18 15:39 36.076584 -115.121357 207 2038ft 2kts
30-Jun-18 15:40 36.076377 -115.122948 269 2038ft 12kts
30-Jun-18 15:41 36.076404 -115.156066 270 2206ft 181kts
30-Jun-18 15:42 36.076067 -115.218328 270 4568ft 203kts
30-Jun-18 15:43 36.036478 -115.274057 199 6614ft 253kts
30-Jun-18 15:44 35.968573 -115.304589 198 7005ft 267kts
30-Jun-18 15:45 35.891037 -115.313822 185 9463ft 295kts
30-Jun-18 15:46 35.805729 -115.312563 174 11543ft 331kts
30-Jun-18 15:47 35.712352 -115.300470 174 13978ft 348kts
30-Jun-18 15:48 35.614153 -115.298048 180 16386ft 360kts
30-Jun-18 15:49 35.516755 -115.303300 190 18459ft 374kts
30-Jun-18 15:50 35.423706 -115.362050 210 20531ft 384kts
30-Jun-18 15:51 35.333415 -115.427572 210 22367ft 393kts
30-Jun-18 15:52 35.238629 -115.496124 210 24101ft 402kts
30-Jun-18 15:53 35.141482 -115.566206 211 25657ft 410kts
30-Jun-18 15:54 35.058534 -115.661734 226 27021ft 419kts
30-Jun-18 15:55 34.979348 -115.762898 226 27986ft 430kts
30-Jun-18 15:56 34.894811 -115.870604 226 28024ft 454kts
30-Jun-18 15:57 34.814386 -115.972920 226 28018ft 467kts
30-Jun-18 15:58 34.725567 -116.085511 227 28016ft 466kts
30-Jun-18 15:59 34.636096 -116.199269 227 28020ft 466kts
30-Jun-18 16:00 34.547210 -116.311943 227 28004ft 458kts
30-Jun-18 16:01 34.463265 -116.418002 227 28017ft 436kts
30-Jun-18 16:02 34.392097 -116.534196 244 27995ft 434kts
30-Jun-18 16:03 34.340898 -116.658829 244 25701ft 420kts
30-Jun-18 16:04 34.294117 -116.775082 244 23373ft 411kts
30-Jun-18 16:06 34.245354 -116.896403 244 20943ft 402kts
30-Jun-18 16:07 34.200638 -117.012408 252 20127ft 382kts
30-Jun-18 16:08 34.168338 -117.135085 253 20035ft 386kts
30-Jun-18 16:09 34.135088 -117.258150 253 19170ft 392kts
30-Jun-18 16:10 34.102357 -117.378971 259 16376ft 361kts
30-Jun-18 16:11 34.086705 -117.489395 226 13542ft 357kts
30-Jun-18 16:12 34.041058 -117.591550 246 11175ft 340kts
30-Jun-18 16:13 34.007226 -117.688167 257 9958ft 309kts
30-Jun-18 16:14 33.996835 -117.786573 262 8485ft 286kts
30-Jun-18 16:15 33.987728 -117.882427 261 7163ft 292kts
30-Jun-18 16:16 33.978400 -117.977830 261 6052ft 286kts
30-Jun-18 16:17 33.969263 -118.069867 260 5016ft 279kts
30-Jun-18 16:18 33.960689 -118.166549 266 2574ft 294kts
30-Jun-18 16:19 33.951837 -118.248339 258 2110ft 202kts
30-Jun-18 16:20 33.945176 -118.304154 258 1447ft 144kts
30-Jun-18 16:21 33.940640 -118.347743 260 734ft 137kts
30-Jun-18 16:22 33.936598 -118.389709 262 103ft 108kts
30-Jun-18 16:23 33.936007 -118.395945 264 109ft 10kts
30-Jun-18 16:24 33.936510 -118.399333 288 115ft 8kts
30-Jun-18 16:25 33.936582 -118.399623 282 115ft 0kts
30-Jun-18 16:26 33.936631 -118.400010 274 116ft 7kts
30-Jun-18 16:27 33.936517 -118.403214 289 119ft 8kts
30-Jun-18 16:28 33.938348 -118.405042 308 122ft 6kts
30-Jun-18 16:29 33.938914 -118.407514 287 126ft 10kts
30-Jun-18 16:29 33.940654 -118.407805 70 123ft 5kts
30-Jun-18 16:30 33.940761 -118.407353 76 122ft 0kts
30-Jun-18 16:31 33.940761 -118.407353 76 122ft 0kts

Navigation Log

Ident Type
Flight plan parsing failed, navigation log unavailable